Time;durP1;ratioP1;P1;durP2;ratioP2;P2;SDS_P1;SDS_P2;PMS_P1;PMS_P2;Temp;Humidity;BMP_temperature;BMP_pressure;BME280_temperature;BME280_humidity;BME280_pressure;Samples;Min_cycle;Max_cycle;Signal;HPM_P1;HPM_P2
2023/12/20 00:02:15;;;;;;;8.63;3.30;;;;;;;2.85;100.00;93986.56;5092872;28;20048;-66
2023/12/20 00:04:42;;;;;;;7.45;3.30;;;;;;;2.97;100.00;93973.56;5074475;28;20430;-67
2023/12/20 00:07:09;;;;;;;8.53;2.80;;;;;;;2.94;100.00;93959.97;5093013;28;20496;-66
2023/12/20 00:09:36;;;;;;;6.97;2.88;;;;;;;2.90;100.00;93951.78;5092681;28;20048;-66
2023/12/20 00:12:03;;;;;;;9.57;3.00;;;;;;;2.90;100.00;93932.81;5093099;28;20036;-66
2023/12/20 00:14:29;;;;;;;8.68;3.22;;;;;;;2.93;100.00;93932.06;5061670;28;20047;-66
2023/12/20 00:16:56;;;;;;;12.10;3.65;;;;;;;2.98;100.00;93914.72;5091594;28;20044;-67
2023/12/20 00:19:23;;;;;;;8.70;2.80;;;;;;;2.99;100.00;93898.06;5079149;28;20093;-67
2023/12/20 00:21:50;;;;;;;7.38;2.83;;;;;;;3.06;100.00;93900.13;5092729;28;20413;-66
2023/12/20 00:24:17;;;;;;;7.82;3.28;;;;;;;3.07;100.00;93914.44;5071635;28;20052;-67
2023/12/20 00:26:44;;;;;;;11.20;4.32;;;;;;;3.06;100.00;93924.50;5086084;28;20036;-67
2023/12/20 00:29:11;;;;;;;5.60;2.38;;;;;;;3.09;100.00;93915.63;5092837;28;20050;-67
2023/12/20 00:31:38;;;;;;;4.10;2.07;;;;;;;3.00;100.00;93910.50;5091789;28;20109;-67
2023/12/20 00:34:04;;;;;;;5.45;2.50;;;;;;;3.02;100.00;93909.34;5089521;28;20035;-67
2023/12/20 00:36:31;;;;;;;6.18;2.50;;;;;;;2.91;100.00;93909.97;5091826;28;20052;-67
2023/12/20 00:38:58;;;;;;;4.70;2.25;;;;;;;2.89;100.00;93911.50;5092692;28;20423;-68
2023/12/20 00:41:25;;;;;;;6.03;2.60;;;;;;;2.87;100.00;93913.78;5091775;28;20404;-67
2023/12/20 00:43:51;;;;;;;4.23;2.30;;;;;;;2.84;100.00;93906.38;5092759;28;20043;-67
2023/12/20 00:46:19;;;;;;;9.75;3.80;;;;;;;2.82;100.00;93914.91;5088841;28;20074;-67
2023/12/20 00:48:46;;;;;;;7.15;3.15;;;;;;;2.83;100.00;93902.91;5090973;28;20660;-67
2023/12/20 00:51:13;;;;;;;24.73;11.32;;;;;;;2.87;100.00;93897.53;5076926;28;20113;-67
2023/12/20 00:53:40;;;;;;;5.45;2.58;;;;;;;2.93;100.00;93890.63;5078120;28;20127;-67
2023/12/20 00:56:07;;;;;;;7.67;3.10;;;;;;;3.01;100.00;93903.13;5092378;28;20393;-66
2023/12/20 00:58:33;;;;;;;10.15;3.30;;;;;;;2.99;100.00;93906.22;5091523;28;20036;-67
2023/12/20 01:01:00;;;;;;;10.38;3.38;;;;;;;3.13;100.00;93911.03;5092077;28;20048;-67
2023/12/20 01:03:27;;;;;;;4.55;2.25;;;;;;;3.23;100.00;93908.84;5091512;28;20043;-67
2023/12/20 01:05:54;;;;;;;5.38;2.10;;;;;;;3.35;100.00;93906.66;5092259;28;20097;-67
2023/12/20 01:08:20;;;;;;;3.57;1.87;;;;;;;3.36;100.00;93910.94;5091061;28;20062;-66
2023/12/20 01:10:47;;;;;;;7.25;2.63;;;;;;;3.37;100.00;93904.34;5091012;28;20426;-66
2023/12/20 01:13:14;;;;;;;6.20;2.35;;;;;;;3.35;100.00;93903.16;5091536;28;20048;-68
2023/12/20 01:15:41;;;;;;;4.07;1.90;;;;;;;3.43;100.00;93910.25;5091263;28;20040;-66
2023/12/20 01:18:08;;;;;;;5.97;2.17;;;;;;;3.46;100.00;93906.81;5091508;28;20048;-68
2023/12/20 01:20:36;;;;;;;3.80;1.73;;;;;;;3.46;100.00;93914.13;5091509;28;20057;-67
2023/12/20 01:23:03;;;;;;;4.93;1.80;;;;;;;3.31;100.00;93911.25;5091501;28;20270;-68
2023/12/20 01:25:29;;;;;;;7.45;2.42;;;;;;;3.29;100.00;93907.38;5090685;28;20062;-67
2023/12/20 01:27:56;;;;;;;3.05;1.42;;;;;;;3.34;100.00;93910.53;5091738;28;20056;-67
2023/12/20 01:30:24;;;;;;;3.03;1.70;;;;;;;3.35;100.00;93909.38;5091032;28;20052;-68
2023/12/20 01:32:51;;;;;;;2.77;1.50;;;;;;;3.28;100.00;93916.63;5088288;28;20059;-67
2023/12/20 01:35:17;;;;;;;2.90;1.50;;;;;;;3.31;100.00;93907.78;5091422;28;20092;-67
2023/12/20 01:37:44;;;;;;;5.10;2.15;;;;;;;3.40;100.00;93909.06;5091200;28;20043;-68
2023/12/20 01:40:11;;;;;;;3.97;1.92;;;;;;;3.53;100.00;93895.25;5090746;28;20042;-66
2023/12/20 01:42:38;;;;;;;2.67;1.40;;;;;;;3.43;100.00;93902.09;5090935;28;20404;-66
2023/12/20 01:45:05;;;;;;;2.57;1.40;;;;;;;3.49;100.00;93900.63;5086978;28;20137;-68
2023/12/20 01:47:32;;;;;;;3.72;1.80;;;;;;;3.59;100.00;93907.31;5090847;28;20063;-67
2023/12/20 01:49:59;;;;;;;5.22;2.60;;;;;;;3.68;100.00;93915.16;5073164;28;20078;-68
2023/12/20 01:52:26;;;;;;;3.63;1.90;;;;;;;3.79;100.00;93916.06;5070547;28;20401;-67
2023/12/20 01:54:56;;;;;;;3.78;1.85;;;;;;;3.72;100.00;93913.25;5089737;28;20393;-66
2023/12/20 01:57:23;;;;;;;3.03;1.70;;;;;;;3.84;100.00;93915.72;5090487;28;20420;-67
2023/12/20 01:59:50;;;;;;;3.72;1.70;;;;;;;3.90;100.00;93911.50;5090713;28;20040;-67
2023/12/20 02:02:17;;;;;;;3.45;1.60;;;;;;;3.94;100.00;93904.19;5091039;28;20051;-67
2023/12/20 02:04:44;;;;;;;3.17;1.83;;;;;;;4.01;100.00;93900.75;5090229;28;20113;-67
2023/12/20 02:07:11;;;;;;;4.07;2.10;;;;;;;3.96;100.00;93904.63;5090838;28;20047;-68
2023/12/20 02:09:40;;;;;;;3.67;1.70;;;;;;;4.08;100.00;93902.75;5090309;28;20404;-67
2023/12/20 02:12:07;;;;;;;2.80;1.40;;;;;;;4.06;100.00;93905.06;5090546;28;20048;-68
2023/12/20 02:14:34;;;;;;;2.80;1.42;;;;;;;4.13;100.00;93913.28;5090531;28;20097;-68
2023/12/20 02:17:01;;;;;;;3.30;1.48;;;;;;;4.12;100.00;93907.06;5090562;28;20056;-66
2023/12/20 02:19:27;;;;;;;3.17;1.60;;;;;;;4.18;100.00;93902.84;5090042;28;20046;-67
2023/12/20 02:22:10;;;;;;;2.87;1.50;;;;;;;4.09;100.00;93904.34;5090632;28;20097;-68
2023/12/20 02:24:38;;;;;;;3.30;1.80;;;;;;;3.82;100.00;93900.97;5068423;28;20056;-67
2023/12/20 02:27:08;;;;;;;3.38;1.50;;;;;;;4.00;100.00;93905.41;5088311;28;20052;-67
2023/12/20 02:29:35;;;;;;;2.80;1.35;;;;;;;4.03;100.00;93905.81;5090216;28;20043;-66
2023/12/20 02:32:02;;;;;;;2.88;1.48;;;;;;;4.17;100.00;93897.81;5090110;28;20052;-67
2023/12/20 02:34:29;;;;;;;3.87;1.60;;;;;;;4.11;100.00;93897.38;5086779;28;20407;-66
2023/12/20 02:36:56;;;;;;;2.67;1.40;;;;;;;4.24;100.00;93899.78;5068850;28;20098;-67
2023/12/20 02:39:23;;;;;;;3.10;1.52;;;;;;;4.30;100.00;93896.34;5082064;28;20052;-68
2023/12/20 02:41:50;;;;;;;3.22;1.40;;;;;;;4.10;100.00;93892.31;5090220;28;20481;-67
2023/12/20 02:44:16;;;;;;;3.40;1.58;;;;;;;4.09;100.00;93882.59;5088291;28;20048;-67
2023/12/20 02:46:43;;;;;;;2.47;1.20;;;;;;;4.09;100.00;93898.91;5089321;28;20044;-68
2023/12/20 02:49:10;;;;;;;2.30;1.20;;;;;;;4.26;100.00;93895.53;5086345;28;20040;-67
2023/12/20 02:51:40;;;;;;;3.33;1.40;;;;;;;4.34;100.00;93893.66;5071312;28;20058;-67
2023/12/20 02:54:07;;;;;;;2.33;1.20;;;;;;;4.44;100.00;93887.53;5089688;28;20044;-66
2023/12/20 02:56:33;;;;;;;2.03;1.25;;;;;;;4.47;100.00;93892.22;5089280;28;20661;-67
2023/12/20 02:59:01;;;;;;;2.20;1.10;;;;;;;4.47;100.00;93889.50;5068382;28;20052;-67
2023/12/20 03:01:29;;;;;;;2.63;1.33;;;;;;;4.47;100.00;93896.88;5087090;28;20408;-67
2023/12/20 03:03:56;;;;;;;2.30;1.13;;;;;;;4.49;100.00;93891.84;5090159;28;20133;-67
2023/12/20 03:06:23;;;;;;;2.20;1.00;;;;;;;4.26;100.00;93894.75;5089184;28;20040;-67
2023/12/20 03:08:50;;;;;;;3.00;1.20;;;;;;;4.30;100.00;93890.91;5089875;28;20058;-66
2023/12/20 03:11:16;;;;;;;2.10;1.00;;;;;;;4.39;100.00;93893.34;5089676;28;20048;-66
2023/12/20 03:13:43;;;;;;;2.00;1.08;;;;;;;4.29;100.00;93891.31;5089349;28;20044;-67
2023/12/20 03:16:11;;;;;;;2.30;1.00;;;;;;;4.32;100.00;93895.97;5089326;28;20040;-67
2023/12/20 03:18:38;;;;;;;2.20;1.20;;;;;;;4.32;100.00;93902.19;5088888;28;20390;-66
2023/12/20 03:21:05;;;;;;;2.70;0.80;;;;;;;4.29;100.00;93896.75;5089225;28;20055;-67
2023/12/20 03:23:33;;;;;;;2.03;0.90;;;;;;;4.35;100.00;93897.97;5089031;28;20048;-67
2023/12/20 03:26:00;;;;;;;2.53;1.10;;;;;;;4.09;100.00;93905.09;5081310;28;20060;-66
2023/12/20 03:28:27;;;;;;;2.05;1.20;;;;;;;4.10;100.00;93892.31;5088505;28;20048;-66
2023/12/20 03:30:54;;;;;;;2.20;1.02;;;;;;;4.17;100.00;93892.38;5089505;28;20051;-66
2023/12/20 03:33:21;;;;;;;2.00;1.13;;;;;;;4.27;100.00;93902.53;5085266;28;20404;-68
2023/12/20 03:35:47;;;;;;;2.10;1.10;;;;;;;4.23;100.00;93903.69;5089328;28;20523;-67
2023/12/20 03:38:14;;;;;;;2.20;1.00;;;;;;;4.14;100.00;93906.69;5089307;28;20070;-67
2023/12/20 03:40:41;;;;;;;4.00;1.50;;;;;;;4.12;100.00;93907.06;5088823;28;20044;-66
2023/12/20 03:43:08;;;;;;;2.70;1.55;;;;;;;4.12;100.00;93903.56;5089269;28;20416;-66
2023/12/20 03:45:34;;;;;;;2.00;1.10;;;;;;;4.04;100.00;93912.81;5085897;28;20055;-67
2023/12/20 03:48:01;;;;;;;2.30;0.90;;;;;;;4.23;100.00;93911.81;5089148;28;20378;-68
2023/12/20 03:50:29;;;;;;;2.60;1.10;;;;;;;4.02;100.00;93907.75;5088893;28;20536;-67
2023/12/20 03:52:56;;;;;;;2.00;1.10;;;;;;;4.02;100.00;93915.13;5087910;28;20044;-67
2023/12/20 03:55:22;;;;;;;1.92;1.10;;;;;;;3.95;100.00;93924.75;5087154;28;20052;-66
2023/12/20 03:57:49;;;;;;;1.85;1.02;;;;;;;3.99;100.00;93931.00;5070735;28;20045;-66
2023/12/20 04:00:16;;;;;;;1.90;0.90;;;;;;;4.10;100.00;93924.88;5077189;28;20040;-67
2023/12/20 04:02:43;;;;;;;1.88;1.10;;;;;;;4.03;100.00;93932.97;5088355;28;20038;-67
2023/12/20 04:05:10;;;;;;;1.88;1.00;;;;;;;4.07;100.00;93929.13;5088899;28;20055;-66
2023/12/20 04:07:37;;;;;;;1.70;0.82;;;;;;;3.97;100.00;93944.16;5087269;28;20421;-66
2023/12/20 04:10:05;;;;;;;1.80;1.00;;;;;;;3.99;100.00;93935.66;5089043;28;20040;-66
2023/12/20 04:12:33;;;;;;;1.80;0.90;;;;;;;3.91;100.00;93940.22;5088572;28;20040;-66
2023/12/20 04:15:00;;;;;;;3.55;1.20;;;;;;;3.98;100.00;93937.59;5088856;28;20040;-66
2023/12/20 04:17:26;;;;;;;2.72;1.30;;;;;;;3.99;100.00;93932.94;5088425;28;20507;-68
2023/12/20 04:19:53;;;;;;;1.90;0.90;;;;;;;4.08;100.00;93927.97;5089257;28;20073;-67
2023/12/20 04:22:20;;;;;;;1.60;0.70;;;;;;;4.12;100.00;93936.16;5088494;28;20048;-67
2023/12/20 04:24:47;;;;;;;1.60;0.90;;;;;;;4.12;100.00;93933.44;5088898;28;20044;-67
2023/12/20 04:27:14;;;;;;;2.22;0.77;;;;;;;4.17;100.00;93936.59;5088586;28;20408;-66
2023/12/20 04:29:40;;;;;;;1.60;0.90;;;;;;;4.08;100.00;93943.50;5088140;28;20047;-67
2023/12/20 04:32:07;;;;;;;3.50;0.70;;;;;;;3.96;100.00;93939.09;5088975;28;20078;-68
2023/12/20 04:34:34;;;;;;;2.47;1.17;;;;;;;3.82;100.00;93953.31;5084740;28;20075;-66
2023/12/20 04:37:01;;;;;;;1.60;0.80;;;;;;;3.52;100.00;93951.44;5088867;28;20044;-68
2023/12/20 04:39:28;;;;;;;2.00;1.00;;;;;;;3.85;100.00;93954.53;5087972;28;20066;-67
2023/12/20 04:41:55;;;;;;;1.80;0.93;;;;;;;3.56;100.00;93949.56;5088968;28;20477;-67
2023/12/20 04:44:22;;;;;;;1.60;0.70;;;;;;;3.53;100.00;93955.69;5086659;28;20048;-67
2023/12/20 04:46:49;;;;;;;1.92;1.05;;;;;;;3.68;100.00;93948.53;5090945;28;20044;-68
2023/12/20 04:49:15;;;;;;;1.63;0.80;;;;;;;3.84;100.00;93951.00;5092250;28;20052;-67
2023/12/20 04:51:42;;;;;;;2.67;1.70;;;;;;;3.84;100.00;93956.44;5091789;28;20048;-67
2023/12/20 04:54:10;;;;;;;5.47;2.35;;;;;;;3.91;100.00;93955.75;5091997;28;20066;-66
2023/12/20 04:56:37;;;;;;;3.83;2.22;;;;;;;3.90;100.00;93960.38;5082042;28;20043;-66
2023/12/20 04:59:04;;;;;;;2.25;1.20;;;;;;;3.78;100.00;93955.19;5071949;28;20375;-66
2023/12/20 05:01:30;;;;;;;2.40;1.40;;;;;;;3.85;100.00;93966.16;5089980;28;20067;-68
2023/12/20 05:03:57;;;;;;;2.58;0.90;;;;;;;3.97;100.00;93970.53;5092056;28;20140;-66
2023/12/20 05:06:24;;;;;;;2.13;0.90;;;;;;;3.91;100.00;93967.38;5091529;28;20404;-67
2023/12/20 05:08:51;;;;;;;3.33;1.00;;;;;;;3.98;100.00;93978.31;5092208;28;20081;-67
2023/12/20 05:11:18;;;;;;;2.13;0.80;;;;;;;4.00;100.00;93973.31;5070305;28;20040;-67
2023/12/20 05:13:44;;;;;;;2.87;1.10;;;;;;;3.91;100.00;93986.38;5083555;28;20044;-68
2023/12/20 05:16:17;;;;;;;1.88;1.02;;;;;;;3.84;100.00;93993.66;5091315;28;21255;-66
2023/12/20 05:18:45;;;;;;;2.65;0.90;;;;;;;3.79;100.00;93994.78;5090840;28;20741;-66
2023/12/20 05:21:12;;;;;;;3.22;1.20;;;;;;;3.64;100.00;93991.09;5091500;28;20044;-67
2023/12/20 05:23:39;;;;;;;1.83;1.10;;;;;;;3.83;100.00;93990.16;5090986;28;20055;-67
2023/12/20 05:26:06;;;;;;;1.90;1.10;;;;;;;3.71;100.00;93998.56;5090818;28;20113;-68
2023/12/20 05:28:33;;;;;;;1.80;0.80;;;;;;;3.64;100.00;94006.59;5090971;28;20036;-67
2023/12/20 05:31:00;;;;;;;3.05;1.30;;;;;;;3.77;100.00;93997.09;5091449;28;20112;-68
2023/12/20 05:33:27;;;;;;;46.55;22.65;;;;;;;3.75;100.00;94002.09;5087271;28;20067;-67
2023/12/20 05:35:53;;;;;;;28.48;13.45;;;;;;;3.77;100.00;93992.44;5091555;28;20058;-67
2023/12/20 05:38:20;;;;;;;17.43;7.37;;;;;;;3.67;100.00;93995.03;5090667;28;20088;-67
2023/12/20 05:40:47;;;;;;;13.35;5.60;;;;;;;3.70;100.00;93997.78;5073280;28;20075;-67
2023/12/20 05:43:14;;;;;;;8.38;4.00;;;;;;;3.82;100.00;93999.44;5090923;28;20044;-68
2023/12/20 05:45:40;;;;;;;7.13;3.20;;;;;;;3.75;100.00;93994.72;5088085;28;20044;-67
2023/12/20 05:48:07;;;;;;;5.38;2.65;;;;;;;3.69;100.00;94009.78;5089544;28;20047;-67
2023/12/20 05:50:35;;;;;;;11.70;5.47;;;;;;;3.75;100.00;94007.53;5090767;28;20043;-67
2023/12/20 05:53:01;;;;;;;5.47;2.80;;;;;;;3.54;100.00;94016.97;5091064;28;20051;-68
2023/12/20 05:55:28;;;;;;;3.67;1.92;;;;;;;3.51;100.00;94025.84;5069078;28;20062;-68
2023/12/20 05:57:55;;;;;;;4.40;2.30;;;;;;;3.80;100.00;94024.28;5088756;28;20097;-67
2023/12/20 06:00:21;;;;;;;3.67;1.92;;;;;;;3.82;100.00;94029.31;5088518;28;20044;-67
2023/12/20 06:02:48;;;;;;;2.93;1.40;;;;;;;3.75;100.00;94035.44;5071916;28;20375;-67
2023/12/20 06:05:15;;;;;;;4.57;1.58;;;;;;;3.57;100.00;94026.31;5080730;28;20161;-68
2023/12/20 06:07:42;;;;;;;2.88;1.35;;;;;;;3.59;100.00;94038.34;5090310;28;20438;-67
2023/12/20 06:10:09;;;;;;;2.20;1.05;;;;;;;3.80;100.00;94034.34;5090907;28;20044;-68
2023/12/20 06:12:36;;;;;;;7.63;3.70;;;;;;;3.84;100.00;94040.59;5089833;28;20416;-68
2023/12/20 06:15:03;;;;;;;19.93;8.53;;;;;;;3.89;100.00;94043.00;5090790;28;20050;-67
2023/12/20 06:17:31;;;;;;;5.00;2.20;;;;;;;3.79;100.00;94038.22;5089925;28;20211;-67
2023/12/20 06:19:57;;;;;;;3.38;1.60;;;;;;;3.82;100.00;94042.13;5090340;28;20040;-67
2023/12/20 06:22:25;;;;;;;3.78;1.92;;;;;;;3.93;100.00;94048.47;5089710;28;20063;-68
2023/12/20 06:24:51;;;;;;;4.75;1.75;;;;;;;3.76;100.00;94052.50;5089846;28;20543;-67
2023/12/20 06:27:18;;;;;;;4.13;2.00;;;;;;;3.84;100.00;94053.38;5072258;28;20043;-67
2023/12/20 06:29:45;;;;;;;5.95;2.63;;;;;;;3.89;100.00;94061.22;5089269;28;20210;-69
2023/12/20 06:32:12;;;;;;;4.25;1.80;;;;;;;3.71;100.00;94058.28;5089733;28;20070;-66
2023/12/20 06:34:38;;;;;;;2.45;1.45;;;;;;;3.56;100.00;94060.81;5089044;28;20054;-67
2023/12/20 06:37:05;;;;;;;2.20;1.23;;;;;;;3.46;100.00;94079.63;5089928;28;20044;-67
2023/12/20 06:39:33;;;;;;;2.77;1.20;;;;;;;3.74;100.00;94063.75;5089373;28;20096;-67
2023/12/20 06:42:00;;;;;;;3.20;1.52;;;;;;;3.76;100.00;94058.75;5090037;28;20048;-68
2023/12/20 06:44:27;;;;;;;3.10;1.60;;;;;;;3.70;100.00;94062.13;5086275;28;20062;-67
2023/12/20 06:46:54;;;;;;;5.22;2.10;;;;;;;3.79;100.00;94057.22;5090091;28;20054;-67
2023/12/20 06:49:20;;;;;;;2.75;1.70;;;;;;;3.89;100.00;94063.94;5089055;28;20048;-67
2023/12/20 06:51:47;;;;;;;3.50;1.80;;;;;;;3.85;100.00;94058.44;5089805;28;20044;-67
2023/12/20 06:54:14;;;;;;;4.00;2.60;;;;;;;3.61;100.00;94070.56;5089862;28;20044;-64
2023/12/20 06:56:41;;;;;;;4.78;2.67;;;;;;;3.58;100.00;94074.78;5089460;28;20493;-66
2023/12/20 06:59:07;;;;;;;2.67;1.80;;;;;;;3.76;100.00;94075.03;5089529;28;20477;-64
2023/12/20 07:01:34;;;;;;;5.57;2.63;;;;;;;3.78;100.00;94067.28;5089266;28;20046;-65
2023/12/20 07:04:01;;;;;;;12.60;4.87;;;;;;;3.84;100.00;94064.25;5089492;28;20070;-66
2023/12/20 07:06:28;;;;;;;8.98;3.63;;;;;;;3.87;100.00;94072.44;5089154;28;20040;-66
2023/12/20 07:08:54;;;;;;;7.55;3.40;;;;;;;3.78;100.00;94066.50;5088705;28;20473;-65
2023/12/20 07:11:21;;;;;;;3.58;1.52;;;;;;;3.83;100.00;94068.91;5089140;28;20405;-66
2023/12/20 07:13:49;;;;;;;3.40;1.77;;;;;;;3.82;100.00;94074.69;5089460;28;20046;-65
2023/12/20 07:16:16;;;;;;;4.00;1.50;;;;;;;3.90;100.00;94092.63;5088567;28;20058;-65
2023/12/20 07:18:43;;;;;;;3.33;1.80;;;;;;;3.78;100.00;94089.00;5088684;28;20036;-66
2023/12/20 07:21:09;;;;;;;4.93;2.00;;;;;;;3.86;100.00;94091.81;5089584;28;20369;-65
2023/12/20 07:23:36;;;;;;;4.43;1.33;;;;;;;3.82;100.00;94097.19;5070757;28;20044;-65
2023/12/20 07:26:04;;;;;;;2.97;1.70;;;;;;;3.81;100.00;94095.63;5087966;28;20071;-66
2023/12/20 07:28:30;;;;;;;5.00;1.50;;;;;;;3.83;100.00;94098.00;5088788;28;20048;-65
2023/12/20 07:30:58;;;;;;;2.25;1.27;;;;;;;3.92;100.00;94093.81;5089089;28;20044;-65
2023/12/20 07:33:25;;;;;;;5.55;3.10;;;;;;;3.84;100.00;94094.09;5084800;28;20056;-67
2023/12/20 07:35:52;;;;;;;6.57;3.20;;;;;;;3.91;100.00;94108.56;5079845;28;20040;-68
2023/12/20 07:38:19;;;;;;;3.17;1.77;;;;;;;4.00;100.00;94098.22;5070289;28;20075;-68
2023/12/20 07:40:45;;;;;;;3.53;2.23;;;;;;;3.80;100.00;94108.44;5088293;28;20735;-67
2023/12/20 07:43:12;;;;;;;5.45;3.05;;;;;;;3.64;100.00;94107.00;5088878;28;20044;-67
2023/12/20 07:45:39;;;;;;;5.55;2.65;;;;;;;3.62;100.00;94112.03;5084432;28;20062;-67
2023/12/20 07:48:07;;;;;;;5.53;2.80;;;;;;;3.79;100.00;94111.50;5069476;28;20048;-67
2023/12/20 07:50:34;;;;;;;4.18;2.40;;;;;;;3.95;100.00;94116.75;5088128;28;20067;-67
2023/12/20 07:53:01;;;;;;;3.73;1.73;;;;;;;3.86;100.00;94111.59;5088749;28;20044;-68
2023/12/20 07:55:27;;;;;;;3.20;1.88;;;;;;;3.93;100.00;94122.56;5088440;28;20055;-68
2023/12/20 07:57:54;;;;;;;2.92;1.63;;;;;;;3.74;100.00;94131.63;5089007;28;20070;-67
2023/12/20 08:00:21;;;;;;;4.85;2.40;;;;;;;3.85;100.00;94129.03;5087936;28;20056;-67
2023/12/20 08:02:48;;;;;;;4.50;2.40;;;;;;;3.92;100.00;94129.13;5089239;28;20040;-68
2023/12/20 08:05:15;;;;;;;3.57;1.80;;;;;;;4.00;100.00;94133.53;5088475;28;20044;-67
2023/12/20 08:07:44;;;;;;;4.30;2.10;;;;;;;4.15;100.00;94139.13;5088304;28;20048;-67
2023/12/20 08:10:12;;;;;;;4.45;2.30;;;;;;;4.02;100.00;94135.84;5071098;28;20093;-67
2023/12/20 08:12:39;;;;;;;5.03;2.50;;;;;;;4.00;100.00;94138.94;5074447;28;20046;-66
2023/12/20 08:15:06;;;;;;;7.25;2.70;;;;;;;4.26;100.00;94137.31;5088923;28;20056;-66
2023/12/20 08:17:33;;;;;;;3.60;1.97;;;;;;;4.12;100.00;94132.47;5088399;28;20036;-67
2023/12/20 08:20:00;;;;;;;4.65;1.80;;;;;;;4.06;100.00;94133.19;5088584;28;20051;-67
2023/12/20 08:22:27;;;;;;;3.45;2.10;;;;;;;4.02;100.00;94121.50;5092409;28;20036;-67
2023/12/20 08:24:54;;;;;;;3.10;1.50;;;;;;;4.08;100.00;94134.38;5074794;28;20082;-68
2023/12/20 08:27:20;;;;;;;3.40;2.05;;;;;;;4.26;100.00;94140.03;5091667;28;20048;-67
2023/12/20 08:29:49;;;;;;;5.37;2.00;;;;;;;4.28;100.00;94137.72;5092635;28;20044;-68
2023/12/20 08:32:16;;;;;;;3.33;1.65;;;;;;;4.53;100.00;94134.53;5091998;28;20044;-67
2023/12/20 08:34:42;;;;;;;3.20;1.50;;;;;;;4.47;100.00;94142.22;5089558;28;20044;-67
2023/12/20 08:37:09;;;;;;;3.33;1.80;;;;;;;4.56;100.00;94140.00;5092695;28;20067;-67
2023/12/20 08:39:36;;;;;;;4.13;1.63;;;;;;;4.60;100.00;94148.97;5091417;28;20056;-67
2023/12/20 08:42:03;;;;;;;3.60;1.60;;;;;;;4.58;100.00;94145.84;5092218;28;20077;-67
2023/12/20 08:44:30;;;;;;;3.90;1.70;;;;;;;4.69;100.00;94159.56;5089109;28;20057;-67
2023/12/20 08:46:57;;;;;;;4.25;1.88;;;;;;;4.85;100.00;94166.69;5092128;28;20446;-68
2023/12/20 08:49:23;;;;;;;3.60;1.67;;;;;;;4.77;100.00;94155.00;5091480;28;20454;-67
2023/12/20 08:51:50;;;;;;;3.47;1.90;;;;;;;4.93;100.00;94144.66;5092005;28;20040;-67
2023/12/20 08:54:19;;;;;;;3.57;2.20;;;;;;;5.57;100.00;94154.53;5091940;28;20404;-68
2023/12/20 08:56:46;;;;;;;3.90;1.80;;;;;;;5.10;100.00;94148.69;5092967;28;20594;-67
2023/12/20 08:59:12;;;;;;;5.60;2.47;;;;;;;5.19;100.00;94151.09;5096732;28;20052;-67
2023/12/20 09:01:39;;;;;;;2.75;1.42;;;;;;;4.91;100.00;94149.69;5091278;28;20048;-66
2023/12/20 09:04:06;;;;;;;3.22;1.50;;;;;;;5.19;100.00;94145.66;5072649;28;20052;-68
2023/12/20 09:06:33;;;;;;;2.83;1.53;;;;;;;5.55;100.00;94144.03;5091153;28;20097;-68
2023/12/20 09:09:00;;;;;;;2.90;1.33;;;;;;;5.54;100.00;94142.44;5091685;28;20047;-68
2023/12/20 09:11:27;;;;;;;4.72;2.15;;;;;;;5.55;100.00;94143.22;5091509;28;20671;-67
2023/12/20 09:13:56;;;;;;;2.50;1.40;;;;;;;5.25;100.00;94143.38;5092284;28;20038;-68
2023/12/20 09:16:23;;;;;;;3.85;1.90;;;;;;;5.45;100.00;94147.44;5091626;28;20040;-67
2023/12/20 09:18:50;;;;;;;2.70;1.77;;;;;;;5.66;100.00;94146.03;5092025;28;20053;-68
2023/12/20 09:21:17;;;;;;;5.82;2.53;;;;;;;5.47;100.00;94149.78;5091560;28;20397;-66
2023/12/20 09:23:44;;;;;;;4.20;2.50;;;;;;;6.72;100.00;94153.25;5091541;28;20106;-67
2023/12/20 09:26:10;;;;;;;6.60;2.50;;;;;;;7.91;100.00;94147.88;5073296;28;20036;-67
2023/12/20 09:28:38;;;;;;;4.00;2.00;;;;;;;8.22;100.00;94154.44;5073292;28;20404;-67
2023/12/20 09:31:05;;;;;;;2.70;1.70;;;;;;;10.63;100.00;94155.59;5091195;28;20039;-67
2023/12/20 09:33:33;;;;;;;3.70;1.90;;;;;;;13.39;95.56;94142.72;5069131;28;20422;-68
2023/12/20 09:36:00;;;;;;;2.60;1.50;;;;;;;14.87;75.21;94148.09;5091607;28;20048;-68
2023/12/20 09:38:27;;;;;;;2.17;1.10;;;;;;;14.70;75.17;94159.22;5072798;28;20051;-68
2023/12/20 09:40:55;;;;;;;3.95;1.58;;;;;;;15.87;73.47;94149.91;5090977;28;20048;-68
2023/12/20 09:43:24;;;;;;;2.40;1.20;;;;;;;15.41;67.23;94155.63;5090194;28;20098;-66
2023/12/20 09:45:53;;;;;;;2.50;1.25;;;;;;;13.36;80.20;94149.88;5090957;28;20038;-65
2023/12/20 09:48:21;;;;;;;2.65;1.20;;;;;;;11.87;90.41;94149.53;5090758;28;20404;-66
2023/12/20 09:50:48;;;;;;;4.22;2.30;;;;;;;9.65;100.00;94157.66;5091155;28;20044;-65
2023/12/20 09:53:21;;;;;;;5.78;2.50;;;;;;;8.32;100.00;94156.38;5090893;28;20489;-64
2023/12/20 09:55:47;;;;;;;2.50;1.30;;;;;;;8.24;100.00;94149.38;5089925;28;20649;-64
2023/12/20 09:58:14;;;;;;;2.60;1.23;;;;;;;7.67;100.00;94150.25;5091129;28;20066;-64
2023/12/20 10:00:41;;;;;;;2.40;1.27;;;;;;;6.84;100.00;94149.38;5090205;28;20073;-64
2023/12/20 10:03:08;;;;;;;2.60;1.30;;;;;;;7.45;100.00;94145.97;5090470;28;20048;-64
2023/12/20 10:05:35;;;;;;;4.80;1.20;;;;;;;7.05;100.00;94137.72;5090265;28;20450;-65
2023/12/20 10:08:03;;;;;;;3.00;1.40;;;;;;;6.82;100.00;94143.50;5083096;28;20053;-65
2023/12/20 10:10:30;;;;;;;3.22;1.73;;;;;;;6.77;100.00;94136.47;5069982;28;20075;-64
2023/12/20 10:13:13;;;;;;;6.32;3.85;;;;;;;7.02;100.00;94132.25;5086172;28;20396;-65
2023/12/20 10:15:40;;;;;;;9.18;2.80;;;;;;;6.71;100.00;94124.38;5088872;28;20056;-65
2023/12/20 10:18:08;;;;;;;2.60;1.30;;;;;;;6.73;100.00;94135.69;5085770;28;20044;-66
2023/12/20 10:20:36;;;;;;;4.23;1.50;;;;;;;6.56;100.00;94139.13;5075352;28;20044;-65
2023/12/20 10:23:03;;;;;;;3.63;1.70;;;;;;;6.34;100.00;94143.75;5089557;28;20055;-66
2023/12/20 10:25:31;;;;;;;3.58;1.40;;;;;;;6.00;100.00;94139.28;5088713;28;20412;-66
2023/12/20 10:28:10;;;;;;;3.40;1.50;;;;;;;5.88;100.00;94134.13;5089440;28;20044;-65
2023/12/20 10:30:38;;;;;;;2.63;1.50;;;;;;;5.96;100.00;94137.72;5088694;28;20040;-66
2023/12/20 10:33:07;;;;;;;3.53;1.40;;;;;;;5.88;100.00;94141.53;5086865;28;20048;-65
2023/12/20 10:35:35;;;;;;;2.55;1.23;;;;;;;5.98;100.00;94143.56;5088864;28;20588;-64
2023/12/20 10:38:05;;;;;;;2.85;1.42;;;;;;;5.95;100.00;94136.91;5085787;28;20044;-64
2023/12/20 10:40:39;;;;;;;6.13;2.00;;;;;;;6.14;100.00;94133.13;5075887;28;20060;-64
2023/12/20 10:43:06;;;;;;;3.72;1.88;;;;;;;6.19;100.00;94126.53;5089193;28;20055;-64
2023/12/20 10:45:34;;;;;;;2.80;1.70;;;;;;;6.17;100.00;94123.41;5086241;28;20048;-64
2023/12/20 10:48:01;;;;;;;5.30;1.80;;;;;;;6.90;100.00;94111.56;5089103;28;20052;-65
2023/12/20 10:50:29;;;;;;;3.63;1.35;;;;;;;10.48;100.00;94103.59;5088434;28;20044;-65
2023/12/20 10:52:57;;;;;;;2.50;1.45;;;;;;;11.44;90.61;94097.19;5088849;28;20048;-66
2023/12/20 10:55:25;;;;;;;3.15;1.92;;;;;;;10.41;92.29;94094.69;5070532;28;20044;-66
2023/12/20 10:58:00;;;;;;;2.80;1.40;;;;;;;13.13;80.19;94086.56;5088615;28;20685;-66
2023/12/20 11:00:30;;;;;;;2.92;1.55;;;;;;;13.96;74.10;94091.72;5087845;28;20405;-66
2023/12/20 11:03:04;;;;;;;3.08;1.52;;;;;;;14.76;69.02;94082.09;5067994;28;20048;-66
2023/12/20 11:05:50;;;;;;;2.90;1.50;;;;;;;11.50;79.20;94090.81;5088040;28;20062;-66
2023/12/20 11:08:35;;;;;;;3.63;1.98;;;;;;;8.63;99.59;94095.72;5084549;28;20519;-65
2023/12/20 11:11:21;;;;;;;3.70;1.70;;;;;;;7.67;100.00;94101.06;5074747;28;20487;-65
2023/12/20 11:14:00;;;;;;;3.80;1.75;;;;;;;7.36;100.00;94105.38;5087770;28;20990;-65
2023/12/20 11:16:27;;;;;;;4.32;2.22;;;;;;;7.21;100.00;94101.88;5087910;28;20048;-65
2023/12/20 11:19:07;;;;;;;3.60;1.88;;;;;;;7.15;100.00;94108.88;5088730;28;20047;-64
2023/12/20 11:21:34;;;;;;;5.78;2.80;;;;;;;7.20;100.00;94105.75;5088216;28;20100;-64
2023/12/20 11:24:03;;;;;;;3.97;2.20;;;;;;;7.56;100.00;94095.59;5088367;28;20130;-65
2023/12/20 11:26:30;;;;;;;4.80;2.30;;;;;;;8.27;100.00;94093.09;5087719;28;20047;-65
2023/12/20 11:29:36;;;;;;;4.15;2.03;;;;;;;11.50;88.50;94093.56;5088825;28;20596;-65
2023/12/20 11:32:24;;;;;;;3.42;1.88;;;;;;;12.34;80.75;94086.22;5044620;28;20057;-67
2023/12/20 11:34:53;;;;;;;3.00;1.80;;;;;;;12.57;77.14;94095.59;5081495;28;20480;-66
2023/12/20 11:37:20;;;;;;;3.53;2.17;;;;;;;8.70;100.00;94091.00;5087004;28;20483;-66